createdAt,value
2022-11-14T00:00:48.984Z,11.68
2022-11-14T00:03:34.753Z,11.80
2022-11-14T00:06:20.543Z,11.89
2022-11-14T00:09:06.291Z,11.76
2022-11-14T00:11:51.969Z,11.79
2022-11-14T00:14:38.353Z,11.77
2022-11-14T00:17:24.102Z,11.74
2022-11-14T00:20:11.838Z,11.73
2022-11-14T00:22:58.022Z,11.75
2022-11-14T00:25:44.587Z,11.62
2022-11-14T00:28:30.466Z,11.66
2022-11-14T00:31:16.623Z,11.96
2022-11-14T00:34:02.425Z,11.79
2022-11-14T00:36:48.556Z,11.91
2022-11-14T00:39:34.411Z,11.90
2022-11-14T00:42:20.280Z,11.82
2022-11-14T00:45:06.223Z,11.78
2022-11-14T00:47:52.064Z,11.69
2022-11-14T00:50:38.181Z,11.64
2022-11-14T00:53:24.089Z,11.70
2022-11-14T00:56:09.806Z,11.75
2022-11-14T00:58:55.529Z,11.71
2022-11-14T01:01:41.384Z,11.54
2022-11-14T01:04:28.082Z,11.68
2022-11-14T01:07:13.834Z,11.66
2022-11-14T01:10:00.078Z,11.58
2022-11-14T01:12:45.889Z,11.49
2022-11-14T01:15:31.685Z,11.67
2022-11-14T01:18:18.909Z,11.40
2022-11-14T01:21:10.792Z,11.71
2022-11-14T01:23:56.945Z,11.71
2022-11-14T01:26:42.849Z,11.82
2022-11-14T01:29:28.769Z,11.65
2022-11-14T01:32:15.046Z,11.74
2022-11-14T01:35:00.818Z,11.93
2022-11-14T01:37:46.425Z,11.49
2022-11-14T01:40:34.346Z,11.52
2022-11-14T01:43:20.258Z,11.61
2022-11-14T01:46:29.598Z,11.81
2022-11-14T01:49:20.868Z,11.76
2022-11-14T01:52:08.840Z,11.92
2022-11-14T01:55:00.207Z,12.04
2022-11-14T01:57:48.232Z,12.05
2022-11-14T02:00:34.434Z,11.86
2022-11-14T02:03:21.187Z,11.73
2022-11-14T02:06:10.765Z,11.60
2022-11-14T02:09:00.078Z,11.78
2022-11-14T02:11:46.483Z,11.69
2022-11-14T02:14:34.433Z,11.75
2022-11-14T02:17:29.981Z,11.92
2022-11-14T02:20:28.728Z,11.94
2022-11-14T02:23:16.042Z,11.75
2022-11-14T02:26:01.978Z,11.77
2022-11-14T02:28:48.614Z,11.80
2022-11-14T02:31:34.665Z,11.66
2022-11-14T02:34:21.045Z,11.63
2022-11-14T02:37:07.701Z,11.75
2022-11-14T02:39:53.838Z,11.83
2022-11-14T02:42:40.159Z,11.93
2022-11-14T02:45:26.034Z,12.06
2022-11-14T02:48:12.063Z,12.02
2022-11-14T02:50:58.108Z,11.85
2022-11-14T02:53:43.830Z,11.95
2022-11-14T02:56:29.895Z,12.13
2022-11-14T02:59:16.376Z,12.05
2022-11-14T03:02:02.558Z,12.07
2022-11-14T03:04:48.759Z,12.03
2022-11-14T03:07:35.049Z,12.06
2022-11-14T03:10:21.622Z,12.00
2022-11-14T03:13:07.625Z,11.93
2022-11-14T03:15:53.432Z,11.97
2022-11-14T03:18:39.687Z,12.30
2022-11-14T03:21:25.747Z,12.40
2022-11-14T03:24:11.571Z,12.11
2022-11-14T03:26:57.265Z,12.27
2022-11-14T03:29:43.018Z,12.39
2022-11-14T03:32:29.187Z,12.23
2022-11-14T03:35:14.982Z,12.22
2022-11-14T03:38:00.752Z,12.43
2022-11-14T03:40:46.596Z,12.45
2022-11-14T03:43:34.536Z,12.34
2022-11-14T03:46:21.039Z,12.37
2022-11-14T03:49:07.373Z,12.28
2022-11-14T03:51:53.376Z,12.21
2022-11-14T03:54:39.370Z,12.22
2022-11-14T03:57:25.444Z,12.17
2022-11-14T04:00:11.806Z,12.17
2022-11-14T04:02:58.369Z,12.04
2022-11-14T04:05:45.600Z,11.93
2022-11-14T04:08:33.226Z,12.07
2022-11-14T04:11:19.958Z,12.24
2022-11-14T04:14:05.978Z,12.14
2022-11-14T04:16:52.101Z,12.13
2022-11-14T04:19:37.909Z,12.24
2022-11-14T04:22:23.813Z,12.33
2022-11-14T04:25:10.325Z,12.10
2022-11-14T04:27:56.318Z,12.21
2022-11-14T04:30:42.324Z,12.25
2022-11-14T04:33:28.449Z,12.36
2022-11-14T04:36:14.411Z,12.34
2022-11-14T04:39:01.084Z,12.30
2022-11-14T04:41:47.340Z,12.21
2022-11-14T04:44:33.237Z,12.12
2022-11-14T04:47:19.450Z,12.23
2022-11-14T04:50:05.613Z,12.33
2022-11-14T04:52:53.752Z,12.19
2022-11-14T04:55:39.753Z,12.22
2022-11-14T04:58:26.788Z,12.37
2022-11-14T05:01:14.110Z,12.44
2022-11-14T05:04:00.327Z,12.42
2022-11-14T05:06:46.576Z,12.67
2022-11-14T05:09:32.648Z,12.61
2022-11-14T05:12:18.312Z,12.75
2022-11-14T05:15:04.433Z,12.58
2022-11-14T05:17:50.555Z,12.63
2022-11-14T05:20:36.315Z,12.66
2022-11-14T05:23:23.890Z,12.57
2022-11-14T05:26:12.239Z,12.41
2022-11-14T05:28:58.043Z,12.36
2022-11-14T05:31:44.280Z,12.32
2022-11-14T05:34:29.873Z,12.32
2022-11-14T05:37:15.799Z,12.27
2022-11-14T05:40:02.925Z,12.06
2022-11-14T05:42:48.716Z,11.86
2022-11-14T05:45:34.350Z,11.88
2022-11-14T05:48:20.047Z,11.79
2022-11-14T05:51:07.665Z,11.63
2022-11-14T05:53:53.827Z,11.32
2022-11-14T05:56:39.586Z,11.10
2022-11-14T05:59:25.369Z,11.31
2022-11-14T06:02:59.396Z,11.48
2022-11-14T06:05:58.223Z,11.77
2022-11-14T06:09:09.919Z,11.81
2022-11-14T06:12:02.520Z,11.92
2022-11-14T06:15:04.095Z,12.06
2022-11-14T06:17:55.461Z,11.98
2022-11-14T06:20:41.780Z,12.24
2022-11-14T06:23:34.914Z,12.21
2022-11-14T06:26:25.440Z,11.93
2022-11-14T06:29:11.550Z,11.69
2022-11-14T06:32:08.914Z,11.70
2022-11-14T06:34:55.174Z,11.91
2022-11-14T06:37:41.297Z,11.99
2022-11-14T06:40:33.094Z,11.61
2022-11-14T06:43:19.762Z,11.69
2022-11-14T06:46:07.454Z,11.80
2022-11-14T06:49:02.695Z,11.84
2022-11-14T06:51:48.937Z,11.81
2022-11-14T06:57:55.261Z,11.92
2022-11-14T07:00:41.018Z,11.92
2022-11-14T07:04:02.643Z,11.96
2022-11-14T07:08:48.266Z,11.98
2022-11-14T07:11:11.531Z,12.06
2022-11-14T07:14:03.815Z,12.21
2022-11-14T07:26:53.896Z,12.31
2022-11-14T08:06:48.871Z,12.86
2022-11-14T08:15:13.027Z,13.27
2022-11-14T08:18:20.225Z,13.21
2022-11-14T08:21:48.231Z,13.43
2022-11-14T08:24:45.105Z,13.74
2022-11-14T08:28:06.495Z,14.06
2022-11-14T08:36:31.119Z,14.03
2022-11-14T08:39:26.972Z,14.42
2022-11-14T08:46:38.401Z,14.09
2022-11-14T08:51:36.533Z,14.26
2022-11-14T08:57:09.778Z,14.62
2022-11-14T08:59:55.982Z,14.79
2022-11-14T09:02:41.786Z,14.71
2022-11-14T09:05:27.516Z,14.66
2022-11-14T09:08:13.330Z,14.69
2022-11-14T09:11:05.173Z,14.68
2022-11-14T09:13:52.618Z,14.62
2022-11-14T09:16:38.819Z,14.74
2022-11-14T09:19:24.565Z,14.81
2022-11-14T09:22:10.424Z,14.85
2022-11-14T09:24:56.370Z,14.53
2022-11-14T09:27:42.142Z,14.84
2022-11-14T09:30:28.065Z,14.71
2022-11-14T09:33:13.720Z,14.77
2022-11-14T09:36:01.756Z,14.84
2022-11-14T09:38:47.581Z,14.87
2022-11-14T09:41:33.326Z,14.82
2022-11-14T09:44:33.856Z,14.87
2022-11-14T09:47:26.072Z,14.97
2022-11-14T09:50:25.606Z,14.96
2022-11-14T09:53:51.503Z,15.08
2022-11-14T09:56:37.422Z,15.25
2022-11-14T09:59:23.172Z,15.24
2022-11-14T10:02:24.417Z,15.32
2022-11-14T10:05:33.010Z,15.77
2022-11-14T10:08:21.689Z,15.50
2022-11-14T10:11:16.737Z,15.69
2022-11-14T10:14:30.218Z,15.71
2022-11-14T10:18:13.578Z,16.13
2022-11-14T10:21:40.970Z,15.98
2022-11-14T10:24:56.087Z,15.95
2022-11-14T10:28:05.420Z,16.05
2022-11-14T10:31:16.386Z,16.20
2022-11-14T10:34:28.047Z,16.29
2022-11-14T10:37:27.992Z,16.80
2022-11-14T10:40:21.593Z,16.50
2022-11-14T10:43:36.853Z,16.40
2022-11-14T10:46:27.377Z,16.15
2022-11-14T10:49:24.556Z,16.44
2022-11-14T10:52:16.730Z,16.25
2022-11-14T10:55:13.604Z,16.52
2022-11-14T10:57:59.692Z,16.44
2022-11-14T11:00:46.138Z,16.52
2022-11-14T11:03:42.594Z,16.27
2022-11-14T11:06:29.606Z,16.43
2022-11-14T11:09:45.130Z,16.45
2022-11-14T11:12:34.864Z,17.28
2022-11-14T11:15:31.784Z,17.41
2022-11-14T11:18:35.623Z,17.05
2022-11-14T11:21:23.491Z,16.86
2022-11-14T11:24:09.799Z,16.67
2022-11-14T11:27:22.846Z,16.44
2022-11-14T11:30:23.231Z,16.52
2022-11-14T11:33:24.780Z,16.86
2022-11-14T11:36:22.269Z,16.69
2022-11-14T11:39:23.340Z,16.76
2022-11-14T11:42:20.385Z,16.80
2022-11-14T11:45:17.432Z,16.89
2022-11-14T11:48:19.662Z,17.18
2022-11-14T11:51:12.417Z,16.85
2022-11-14T11:54:09.312Z,16.89
2022-11-14T11:56:59.569Z,16.45
2022-11-14T12:00:00.803Z,16.56
2022-11-14T12:02:50.440Z,16.68
2022-11-14T12:05:58.513Z,16.88
2022-11-14T12:08:52.821Z,16.87
2022-11-14T12:11:44.733Z,16.97
2022-11-14T12:14:33.043Z,16.77
2022-11-14T12:17:53.732Z,16.88
2022-11-14T12:21:15.504Z,16.79
2022-11-14T12:24:16.617Z,16.88
2022-11-14T12:27:11.293Z,16.74
2022-11-14T12:30:18.474Z,16.67
2022-11-14T12:33:13.040Z,16.49
2022-11-14T12:36:02.085Z,16.50
2022-11-14T12:38:52.557Z,16.61
2022-11-14T12:41:40.522Z,16.57
2022-11-14T12:44:29.231Z,16.64
2022-11-14T12:47:19.305Z,16.49
2022-11-14T12:50:29.940Z,16.79
2022-11-14T12:53:38.369Z,16.77
2022-11-14T12:56:26.869Z,17.09
2022-11-14T12:59:28.415Z,16.79
2022-11-14T13:02:53.256Z,16.84
2022-11-14T13:06:18.672Z,16.83
2022-11-14T13:09:23.047Z,16.69
2022-11-14T13:12:53.775Z,16.77
2022-11-14T13:16:13.307Z,16.85
2022-11-14T13:19:35.470Z,16.73
2022-11-14T13:22:39.241Z,16.38
2022-11-14T13:25:27.237Z,16.43
2022-11-14T13:28:38.076Z,16.63
2022-11-14T13:31:42.567Z,16.39
2022-11-14T13:34:53.358Z,16.36
2022-11-14T13:37:53.164Z,16.51
2022-11-14T13:40:58.386Z,16.53
2022-11-14T13:44:09.148Z,16.72
2022-11-14T13:47:00.812Z,16.86
2022-11-14T13:50:00.142Z,16.68
2022-11-14T13:52:48.803Z,16.66
2022-11-14T13:55:59.922Z,16.58
2022-11-14T13:59:02.095Z,16.38
2022-11-14T14:02:12.156Z,16.33
2022-11-14T14:05:03.775Z,16.36
2022-11-14T14:08:10.665Z,16.37
2022-11-14T14:10:59.670Z,16.41
2022-11-14T14:13:59.664Z,16.38
2022-11-14T14:16:55.904Z,16.22
2022-11-14T14:20:06.454Z,16.15
2022-11-14T14:23:32.052Z,16.04
2022-11-14T14:26:34.468Z,15.99
2022-11-14T14:29:26.253Z,16.06
2022-11-14T14:32:21.218Z,16.05
2022-11-14T14:35:23.984Z,15.99
2022-11-14T14:38:12.798Z,15.92
2022-11-14T14:40:59.053Z,15.73
2022-11-14T14:43:52.472Z,15.38
2022-11-14T14:46:38.708Z,15.17
2022-11-14T14:49:35.107Z,15.15
2022-11-14T14:52:31.419Z,15.26
2022-11-14T14:55:35.425Z,15.24
2022-11-14T14:58:22.737Z,15.30
2022-11-14T15:01:20.966Z,15.34
2022-11-14T15:04:15.340Z,15.18
2022-11-14T15:07:01.717Z,15.11
2022-11-14T15:10:02.802Z,15.01
2022-11-14T15:12:49.855Z,14.97
2022-11-14T15:15:39.504Z,14.68
2022-11-14T15:18:29.824Z,14.67
2022-11-14T15:21:27.542Z,14.47
2022-11-14T15:24:17.854Z,14.60
2022-11-14T15:27:19.064Z,14.25
2022-11-14T15:30:21.102Z,14.08
2022-11-14T15:33:33.875Z,14.14
2022-11-14T15:36:19.912Z,13.97
2022-11-14T15:39:24.338Z,13.93
2022-11-14T15:42:31.798Z,14.03
2022-11-14T15:45:25.628Z,13.84
2022-11-14T15:48:15.933Z,13.67
2022-11-14T15:51:02.990Z,13.64
2022-11-14T15:53:50.259Z,13.39
2022-11-14T15:56:39.183Z,13.44
2022-11-14T15:59:27.687Z,13.25
2022-11-14T16:02:34.483Z,13.23
2022-11-14T16:05:28.531Z,13.19
2022-11-14T16:08:14.739Z,13.21
2022-11-14T16:11:05.437Z,13.24
2022-11-14T16:14:03.297Z,13.29
2022-11-14T16:16:55.840Z,13.06
2022-11-14T16:19:44.238Z,12.88
2022-11-14T16:22:31.187Z,12.93
2022-11-14T16:26:49.935Z,12.72
2022-11-14T16:29:13.896Z,12.78
2022-11-14T16:32:00.272Z,12.63
2022-11-14T16:34:48.943Z,12.56
2022-11-14T16:37:35.209Z,12.68
2022-11-14T16:40:23.219Z,12.56
2022-11-14T16:43:14.120Z,12.65
2022-11-14T16:46:04.761Z,12.57
2022-11-14T16:48:57.369Z,12.55
2022-11-14T16:51:51.251Z,12.27
2022-11-14T16:54:39.093Z,12.18
2022-11-14T16:57:37.381Z,12.08
2022-11-14T17:00:26.420Z,12.24
2022-11-14T17:03:34.576Z,12.16
2022-11-14T17:06:26.369Z,12.14
2022-11-14T17:09:14.890Z,12.04
2022-11-14T17:12:01.084Z,12.00
2022-11-14T17:14:48.433Z,12.00
2022-11-14T17:17:37.783Z,11.95
2022-11-14T17:20:24.236Z,12.02
2022-11-14T17:23:11.230Z,11.81
2022-11-14T17:26:21.371Z,11.69
2022-11-14T17:29:13.213Z,11.90
2022-11-14T17:31:59.469Z,11.82
2022-11-14T17:34:50.940Z,11.85
2022-11-14T17:37:36.853Z,11.83
2022-11-14T17:40:22.546Z,11.74
2022-11-14T17:43:08.749Z,11.61
2022-11-14T17:45:56.760Z,11.50
2022-11-14T17:48:43.782Z,11.65
2022-11-14T17:51:47.504Z,11.65
2022-11-14T17:54:37.816Z,11.63
2022-11-14T17:57:24.211Z,11.69
2022-11-14T18:00:20.732Z,11.44
2022-11-14T18:03:16.644Z,10.95
2022-11-14T18:06:15.698Z,11.06
2022-11-14T18:09:14.352Z,11.11
2022-11-14T18:12:01.040Z,11.27
2022-11-14T18:14:46.935Z,10.77
2022-11-14T18:17:33.123Z,10.81
2022-11-14T18:20:19.266Z,10.82
2022-11-14T18:23:11.157Z,10.77
2022-11-14T18:25:57.426Z,10.98
2022-11-14T18:28:55.474Z,11.01
2022-11-14T18:31:52.319Z,10.81
2022-11-14T18:34:38.804Z,10.82
2022-11-14T18:37:25.037Z,10.73
2022-11-14T18:40:16.500Z,11.02
2022-11-14T18:43:02.777Z,11.21
2022-11-14T18:45:48.617Z,11.16
2022-11-14T18:48:36.381Z,11.04
2022-11-14T18:51:29.727Z,11.00
2022-11-14T18:54:21.313Z,10.90
2022-11-14T18:57:07.711Z,10.73
2022-11-14T18:59:54.272Z,10.78
2022-11-14T19:02:40.816Z,10.76
2022-11-14T19:05:26.541Z,10.95
2022-11-14T19:08:12.406Z,10.71
2022-11-14T19:11:06.478Z,10.74
2022-11-14T19:13:55.175Z,10.61
2022-11-14T19:16:41.854Z,10.72
2022-11-14T19:19:27.707Z,10.64
2022-11-14T19:22:13.489Z,10.85
2022-11-14T19:24:59.737Z,10.88
2022-11-14T19:27:50.620Z,10.85
2022-11-14T19:30:36.858Z,10.78
2022-11-14T19:33:22.642Z,10.91
2022-11-14T19:36:12.365Z,10.89
2022-11-14T19:39:00.385Z,10.90
2022-11-14T19:41:46.658Z,10.68
2022-11-14T19:44:32.494Z,10.66
2022-11-14T19:47:18.487Z,10.14
2022-11-14T19:50:05.276Z,10.03
2022-11-14T19:52:54.297Z,9.82
2022-11-14T19:55:54.965Z,10.09
2022-11-14T19:58:51.636Z,9.99
2022-11-14T20:01:42.215Z,10.15
2022-11-14T20:04:36.834Z,10.12
2022-11-14T20:07:23.942Z,9.99
2022-11-14T20:10:13.086Z,9.96
2022-11-14T20:13:01.632Z,10.02
2022-11-14T20:15:48.341Z,9.87
2022-11-14T20:18:39.455Z,9.87
2022-11-14T20:21:27.365Z,10.11
2022-11-14T20:24:17.640Z,10.13
2022-11-14T20:27:04.113Z,10.15
2022-11-14T20:29:51.073Z,9.87
2022-11-14T20:32:39.474Z,9.75
2022-11-14T20:44:42.761Z,9.71
2022-11-14T20:47:34.714Z,9.58
2022-11-14T20:50:21.469Z,9.63
2022-11-14T20:53:11.359Z,9.72
2022-11-14T20:55:57.688Z,9.59
2022-11-14T20:58:48.793Z,9.44
2022-11-14T21:01:40.463Z,9.48
2022-11-14T21:04:29.961Z,9.65
2022-11-14T21:07:16.167Z,9.82
2022-11-14T21:10:20.990Z,9.71
2022-11-14T21:13:28.455Z,9.73
2022-11-14T21:16:19.255Z,9.71
2022-11-14T21:19:06.425Z,9.66
2022-11-14T21:21:53.822Z,9.73
2022-11-14T21:24:39.972Z,9.71
2022-11-14T21:27:26.277Z,9.69
2022-11-14T21:30:12.897Z,9.72
2022-11-14T21:32:59.195Z,9.56
2022-11-14T21:35:45.476Z,9.50
2022-11-14T21:38:31.922Z,9.46
2022-11-14T21:41:19.023Z,9.53
2022-11-14T21:44:05.240Z,9.21
2022-11-14T21:46:51.214Z,9.29
2022-11-14T21:49:37.321Z,9.10
2022-11-14T21:52:23.110Z,9.25
2022-11-14T21:55:09.616Z,9.25
2022-11-14T21:57:55.803Z,9.25
2022-11-14T22:00:42.272Z,9.24
2022-11-14T22:03:49.513Z,9.12
2022-11-14T22:06:35.547Z,9.16
2022-11-14T22:09:22.223Z,9.44
2022-11-14T22:12:08.520Z,9.63
2022-11-14T22:14:54.343Z,9.74
2022-11-14T22:17:40.791Z,9.69
2022-11-14T22:20:26.599Z,9.82
2022-11-14T22:23:12.940Z,9.74
2022-11-14T22:26:00.611Z,9.23
2022-11-14T22:28:47.020Z,9.16
2022-11-14T22:31:33.618Z,9.23
2022-11-14T22:34:19.897Z,8.88
2022-11-14T22:37:05.877Z,8.84
2022-11-14T22:39:52.017Z,8.73
2022-11-14T22:42:37.879Z,8.48
2022-11-14T22:45:23.815Z,8.58
2022-11-14T22:48:09.684Z,8.74
2022-11-14T22:51:05.985Z,8.74
2022-11-14T22:53:57.426Z,8.79
2022-11-14T22:56:43.426Z,8.87
2022-11-14T22:59:29.254Z,9.15
2022-11-14T23:02:15.888Z,9.00
2022-11-14T23:05:02.198Z,8.76
2022-11-14T23:07:48.541Z,8.61
2022-11-14T23:10:34.385Z,8.28
2022-11-14T23:13:20.425Z,8.40
2022-11-14T23:16:15.432Z,8.47
2022-11-14T23:19:03.930Z,8.64
2022-11-14T23:21:50.010Z,8.59
2022-11-14T23:24:36.001Z,8.79
2022-11-14T23:27:21.666Z,8.34
2022-11-14T23:30:07.802Z,8.27
2022-11-14T23:32:54.129Z,8.36
2022-11-14T23:35:41.362Z,8.46
2022-11-14T23:38:30.580Z,8.21
2022-11-14T23:41:18.919Z,8.25
2022-11-14T23:44:05.182Z,8.44
2022-11-14T23:46:51.231Z,8.28
2022-11-14T23:49:37.368Z,8.27
2022-11-14T23:52:23.203Z,8.23
2022-11-14T23:55:08.993Z,8.46
2022-11-14T23:57:54.964Z,8.35
